createdAt,value
2019-04-03T00:00:37.073Z,98825.86
2019-04-03T00:03:06.324Z,98834.26
2019-04-03T00:05:35.957Z,98838.59
2019-04-03T00:08:06.405Z,98839.69
2019-04-03T00:10:38.091Z,98834.83
2019-04-03T00:13:07.253Z,98820.50
2019-04-03T00:15:36.533Z,98822.95
2019-04-03T00:18:05.831Z,98822.38
2019-04-03T00:20:35.338Z,98828.34
2019-04-03T00:23:04.597Z,98817.26
2019-04-03T00:25:33.970Z,98822.41
2019-04-03T00:28:06.066Z,98826.47
2019-04-03T00:30:35.304Z,98824.02
2019-04-03T00:33:07.635Z,98814.27
2019-04-03T00:35:36.918Z,98805.34
2019-04-03T00:38:07.686Z,98793.72
2019-04-03T00:40:37.094Z,98784.30
2019-04-03T00:43:06.430Z,98785.36
2019-04-03T00:45:36.120Z,98788.06
2019-04-03T00:48:05.491Z,98779.96
2019-04-03T00:50:35.005Z,98780.78
2019-04-03T00:53:04.828Z,98776.48
2019-04-03T00:55:34.160Z,98774.84
2019-04-03T00:58:22.591Z,98769.19
2019-04-03T01:00:51.891Z,98763.50
2019-04-03T01:03:23.070Z,98756.75
2019-04-03T01:05:52.384Z,98754.05
2019-04-03T01:08:22.059Z,98744.34
2019-04-03T03:11:47.303Z,98748.41
2019-04-03T03:14:16.702Z,98745.44
2019-04-03T03:16:49.288Z,98744.37
2019-04-03T03:19:17.662Z,98745.16
2019-04-03T03:21:47.381Z,98749.78
2019-04-03T03:24:17.635Z,98739.52
2019-04-03T03:26:48.100Z,98733.30
2019-04-03T03:29:23.741Z,98730.59
2019-04-03T03:32:15.748Z,98731.38
2019-04-03T03:34:45.104Z,98721.39
2019-04-03T03:36:58.725Z,98709.77
2019-04-03T03:39:25.016Z,98699.78
2019-04-03T03:41:57.505Z,98691.97
2019-04-03T03:44:27.054Z,98691.94
2019-04-03T03:47:01.449Z,98694.95
2019-04-03T03:49:30.284Z,98697.65
2019-04-03T03:52:03.317Z,98691.72
2019-04-03T03:54:31.697Z,98682.52
2019-04-03T03:57:04.333Z,98679.78
2019-04-03T03:59:34.213Z,98678.19
2019-04-03T04:02:05.757Z,98682.52
2019-04-03T04:04:34.691Z,98677.94
2019-04-03T04:07:04.787Z,98674.70
2019-04-03T04:09:34.679Z,98677.13
2019-04-03T04:12:05.973Z,98673.64
2019-04-03T04:14:36.522Z,98678.47
2019-04-03T04:17:08.842Z,98676.59
2019-04-03T04:19:37.222Z,98675.77
2019-04-03T04:22:06.662Z,98677.94
2019-04-03T04:24:36.029Z,98670.66
2019-04-03T04:27:05.918Z,98672.29
2019-04-03T04:29:35.175Z,98672.83
2019-04-03T04:32:04.648Z,98669.30
2019-04-03T04:34:33.911Z,98673.64
2019-04-03T04:37:03.246Z,98672.83
2019-04-03T04:39:32.727Z,98667.70
2019-04-03T04:42:04.570Z,98672.29
2019-04-03T04:44:33.401Z,98680.66
2019-04-03T04:47:02.616Z,98682.30
2019-04-03T04:49:32.213Z,98678.52
2019-04-03T04:52:01.747Z,98681.22
2019-04-03T04:54:31.325Z,98686.88
2019-04-03T04:57:00.500Z,98693.89
2019-04-03T04:59:29.767Z,98700.36
2019-04-03T05:01:59.013Z,98702.53
2019-04-03T05:04:28.553Z,98704.69
2019-04-03T05:06:58.194Z,98702.27
2019-04-03T05:09:28.800Z,98706.31
2019-04-03T05:11:58.035Z,98709.53
2019-04-03T05:14:27.302Z,98703.60
2019-04-03T05:16:56.820Z,98705.75
2019-04-03T05:19:26.067Z,98712.25
2019-04-03T05:21:55.514Z,98711.96
2019-04-03T05:24:24.804Z,98708.45
2019-04-03T05:26:54.030Z,98711.70
2019-04-03T05:29:23.316Z,98717.09
2019-04-03T05:31:52.553Z,98717.37
2019-04-03T05:34:21.860Z,98715.20
2019-04-03T05:36:51.153Z,98730.59
2019-04-03T05:39:22.087Z,98725.45
2019-04-03T05:41:51.592Z,98726.53
2019-04-03T05:44:23.193Z,98731.39
2019-04-03T05:46:52.067Z,98732.21
2019-04-03T05:49:21.837Z,98737.34
2019-04-03T05:51:51.273Z,98736.27
2019-04-03T05:54:20.797Z,98728.16
2019-04-03T05:56:51.776Z,98732.76
2019-04-03T05:59:21.395Z,98731.92
2019-04-03T06:01:51.769Z,98731.13
2019-04-03T06:04:20.991Z,98731.38
2019-04-03T06:06:50.499Z,98727.08
2019-04-03T06:09:22.346Z,98734.63
2019-04-03T06:11:52.692Z,98739.48
2019-04-03T06:14:23.579Z,98744.36
2019-04-03T06:16:55.674Z,98752.16
2019-04-03T06:19:24.061Z,98750.54
2019-04-03T06:21:53.450Z,98747.61
2019-04-03T06:24:24.401Z,98744.91
2019-04-03T06:26:53.754Z,98757.58
2019-04-03T06:29:23.017Z,98750.04
2019-04-03T06:31:52.534Z,98745.98
2019-04-03T06:34:21.819Z,98748.95
2019-04-03T06:36:51.281Z,98741.38
2019-04-03T06:39:22.976Z,98735.46
2019-04-03T06:41:54.133Z,98734.92
2019-04-03T06:44:23.366Z,98737.34
2019-04-03T06:46:54.805Z,98725.19
2019-04-03T06:49:23.630Z,98725.75
2019-04-03T06:51:53.142Z,98723.59
2019-04-03T06:54:22.451Z,98720.05
2019-04-03T06:56:52.998Z,98714.41
2019-04-03T06:59:22.566Z,98729.77
2019-04-03T07:01:52.844Z,98737.87
2019-04-03T07:04:23.001Z,98733.00
2019-04-03T07:06:55.184Z,98728.98
2019-04-03T07:09:33.762Z,98716.27
2019-04-03T07:11:57.197Z,98722.74
2019-04-03T07:14:26.758Z,98720.57
2019-04-03T07:16:56.613Z,98717.05
2019-04-03T07:19:25.840Z,98718.91
2019-04-03T07:21:55.932Z,98720.75
2019-04-03T07:24:25.255Z,98722.92
2019-04-03T07:26:54.561Z,98709.91
2019-04-03T07:29:25.675Z,98695.05
2019-04-03T07:31:55.706Z,98674.26
2019-04-03T07:34:25.330Z,98669.16
2019-04-03T07:36:54.543Z,98676.69
2019-04-03T07:39:23.817Z,98698.31
2019-04-03T07:41:54.418Z,98699.63
2019-04-03T07:44:24.129Z,98713.37
2019-04-03T07:46:55.289Z,98716.06
2019-04-03T07:49:25.188Z,98711.78
2019-04-03T07:51:54.512Z,98720.34
2019-04-03T07:54:26.150Z,98724.61
2019-04-03T07:56:57.407Z,98731.91
2019-04-03T07:59:26.152Z,98727.96
2019-04-03T08:01:55.460Z,98735.00
2019-04-03T08:04:25.403Z,98727.94
2019-04-03T08:06:55.028Z,98724.99
2019-04-03T08:09:24.588Z,98726.19
2019-04-03T08:11:53.882Z,98724.05
2019-04-03T08:14:23.131Z,98716.39
2019-04-03T08:16:52.374Z,98699.20
2019-04-03T08:19:23.201Z,98690.81
2019-04-03T08:21:53.103Z,98686.62
2019-04-03T08:24:22.449Z,98689.97
2019-04-03T08:26:52.337Z,98686.69
2019-04-03T08:29:22.065Z,98681.39
2019-04-03T08:31:51.573Z,98678.80
2019-04-03T08:34:21.119Z,98675.48
2019-04-03T08:36:50.810Z,98676.58
2019-04-03T08:39:22.027Z,98677.72
2019-04-03T08:41:51.331Z,98678.45
2019-04-03T08:44:20.642Z,98685.39
2019-04-03T08:46:49.887Z,98684.64
2019-04-03T08:49:19.330Z,98695.30
2019-04-03T08:51:48.794Z,98689.20
2019-04-03T08:54:18.300Z,98694.78
2019-04-03T08:56:48.727Z,98692.43
2019-04-03T08:59:18.702Z,98692.90
2019-04-03T09:01:48.212Z,98698.80
2019-04-03T09:04:17.975Z,98699.67
2019-04-03T09:06:47.319Z,98702.94
2019-04-03T09:09:16.628Z,98705.73
2019-04-03T09:11:45.893Z,98705.09
2019-04-03T09:14:15.151Z,98709.44
2019-04-03T09:16:44.374Z,98708.25
2019-04-03T09:19:16.684Z,98718.27
2019-04-03T09:21:50.242Z,98718.90
2019-04-03T09:24:16.111Z,98709.42
2019-04-03T09:26:45.419Z,98695.06
2019-04-03T09:29:14.733Z,98689.45
2019-04-03T09:31:44.123Z,98689.63
2019-04-03T09:34:13.337Z,98694.92
2019-04-03T09:36:42.968Z,98691.08
2019-04-03T09:39:14.277Z,98693.74
2019-04-03T09:41:43.835Z,98684.14
2019-04-03T09:44:13.412Z,98696.08
2019-04-03T09:46:44.707Z,98685.56
2019-04-03T09:49:13.608Z,98677.76
2019-04-03T09:51:42.880Z,98684.23
2019-04-03T09:54:12.110Z,98680.26
2019-04-03T09:56:57.456Z,98674.94
2019-04-03T09:59:15.217Z,98680.50
2019-04-03T10:01:43.917Z,98675.86
2019-04-03T10:04:13.377Z,98671.50
2019-04-03T10:06:43.823Z,98684.56
2019-04-03T10:09:13.210Z,98706.75
2019-04-03T10:11:42.466Z,98707.05
2019-04-03T10:14:11.719Z,98699.71
2019-04-03T10:16:41.377Z,98698.25
2019-04-03T10:19:10.989Z,98702.50
2019-04-03T10:21:41.621Z,98688.01
2019-04-03T10:24:11.123Z,98680.76
2019-04-03T10:26:40.875Z,98688.47
2019-04-03T10:29:10.383Z,98684.78
2019-04-03T10:31:39.991Z,98695.89
2019-04-03T10:34:09.458Z,98695.56
2019-04-03T10:36:40.131Z,98687.32
2019-04-03T10:39:12.460Z,98680.91
2019-04-03T10:41:41.716Z,98677.45
2019-04-03T10:44:11.890Z,98693.98
2019-04-03T10:46:41.674Z,98688.77
2019-04-03T10:49:11.042Z,98684.63
2019-04-03T10:51:41.579Z,98678.77
2019-04-03T10:54:11.238Z,98667.08
2019-04-03T10:56:40.863Z,98660.00
2019-04-03T10:59:13.011Z,98669.49
2019-04-03T11:01:41.054Z,98671.93
2019-04-03T11:04:10.287Z,98668.56
2019-04-03T11:06:39.538Z,98680.77
2019-04-03T11:09:10.392Z,98678.14
2019-04-03T11:11:42.555Z,98682.89
2019-04-03T11:14:10.746Z,98682.20
2019-04-03T11:16:40.007Z,98683.11
2019-04-03T11:19:09.390Z,98673.70
2019-04-03T11:21:38.733Z,98665.94
2019-04-03T11:24:08.178Z,98669.81
2019-04-03T11:26:37.559Z,98669.67
2019-04-03T11:29:09.529Z,98661.34
2019-04-03T11:31:41.743Z,98662.50
2019-04-03T11:34:09.284Z,98652.95
2019-04-03T11:36:38.678Z,98656.42
2019-04-03T11:39:14.829Z,98648.11
2019-04-03T11:41:40.456Z,98647.37
2019-04-03T11:44:09.707Z,98646.42
2019-04-03T11:46:39.027Z,98639.00
2019-04-03T11:49:08.263Z,98643.93
2019-04-03T11:51:37.573Z,98649.59
2019-04-03T11:54:08.461Z,98651.49
2019-04-03T11:56:38.052Z,98649.08
2019-04-03T11:59:07.454Z,98653.55
2019-04-03T12:01:36.731Z,98658.30
2019-04-03T12:04:06.366Z,98666.38
2019-04-03T12:06:35.617Z,98671.61
2019-04-03T12:09:08.101Z,98673.03
2019-04-03T12:11:39.134Z,98664.72
2019-04-03T12:14:08.820Z,98657.08
2019-04-03T12:16:38.377Z,98655.97
2019-04-03T12:19:08.073Z,98658.73
2019-04-03T12:21:37.643Z,98658.16
2019-04-03T12:24:07.298Z,98661.35
2019-04-03T12:26:36.671Z,98665.16
2019-04-03T12:29:07.702Z,98656.69
2019-04-03T12:31:36.878Z,98645.45
2019-04-03T12:34:06.960Z,98643.95
2019-04-03T12:36:36.321Z,98647.05
2019-04-03T12:39:13.757Z,98644.62
2019-04-03T12:41:43.785Z,98648.53
2019-04-03T12:44:13.552Z,98654.99
2019-04-03T12:46:42.782Z,98649.05
2019-04-03T12:49:12.096Z,98646.55
2019-04-03T12:51:41.317Z,98647.27
2019-04-03T12:54:12.823Z,98640.47
2019-04-03T12:56:41.778Z,98636.23
2019-04-03T12:59:11.080Z,98628.94
2019-04-03T13:01:40.328Z,98623.28
2019-04-03T13:04:10.360Z,98627.81
2019-04-03T13:06:41.854Z,98614.49
2019-04-03T13:09:12.174Z,98618.19
2019-04-03T13:11:41.939Z,98620.09
2019-04-03T13:14:23.289Z,98615.20
2019-04-03T13:16:42.634Z,98613.51
2019-04-03T13:19:14.836Z,98596.01
2019-04-03T13:21:43.289Z,98599.09
2019-04-03T13:24:14.327Z,98608.08
2019-04-03T13:26:44.182Z,98607.40
2019-04-03T13:29:13.503Z,98617.90
2019-04-03T13:31:44.429Z,98613.41
2019-04-03T13:34:14.312Z,98596.18
2019-04-03T13:36:43.550Z,98589.07
2019-04-03T13:39:12.909Z,98577.56
2019-04-03T13:41:43.157Z,98599.78
2019-04-03T13:44:12.584Z,98592.84
2019-04-03T13:46:42.017Z,98576.75
2019-04-03T13:49:11.584Z,98573.66
2019-04-03T13:51:40.826Z,98569.40
2019-04-03T13:54:10.424Z,98563.38
2019-04-03T13:56:42.229Z,98571.23
2019-04-03T13:59:11.004Z,98566.39
2019-04-03T14:01:41.189Z,98571.48
2019-04-03T14:04:11.550Z,98575.00
2019-04-03T14:06:40.860Z,98586.99
2019-04-03T14:09:10.152Z,98591.48
2019-04-03T14:11:39.902Z,98588.47
2019-04-03T14:14:09.172Z,98598.70
2019-04-03T14:16:38.420Z,98595.55
2019-04-03T14:19:07.756Z,98592.30
2019-04-03T14:21:37.147Z,98596.86
2019-04-03T14:24:08.269Z,98605.64
2019-04-03T14:26:37.630Z,98599.21
2019-04-03T14:29:08.424Z,98597.24
2019-04-03T14:31:38.274Z,98593.55
2019-04-03T14:34:08.397Z,98597.92
2019-04-03T14:36:38.067Z,98590.81
2019-04-03T14:39:09.055Z,98583.84
2019-04-03T14:41:39.518Z,98576.80
2019-04-03T14:44:09.762Z,98572.72
2019-04-03T14:46:39.192Z,98577.61
2019-04-03T14:49:10.991Z,98575.37
2019-04-03T14:51:42.825Z,98576.87
2019-04-03T14:54:13.546Z,98577.57
2019-04-03T14:56:43.401Z,98562.42
2019-04-03T14:59:14.071Z,98560.26
2019-04-03T15:01:44.142Z,98563.36
2019-04-03T15:04:13.561Z,98565.25
2019-04-03T15:06:45.623Z,98568.09
2019-04-03T15:09:14.733Z,98562.06
2019-04-03T15:11:44.169Z,98571.39
2019-04-03T15:14:13.403Z,98574.78
2019-04-03T15:16:42.958Z,98565.80
2019-04-03T15:19:13.747Z,98569.88
2019-04-03T15:21:43.181Z,98576.91
2019-04-03T15:24:13.072Z,98586.13
2019-04-03T15:26:42.340Z,98585.70
2019-04-03T15:29:11.598Z,98579.12
2019-04-03T15:31:41.341Z,98576.16
2019-04-03T15:34:10.934Z,98567.42
2019-04-03T15:36:40.262Z,98570.45
2019-04-03T15:39:16.490Z,98572.03
2019-04-03T15:41:44.656Z,98572.20
2019-04-03T15:44:14.046Z,98562.36
2019-04-03T15:46:43.771Z,98554.70
2019-04-03T15:49:13.211Z,98540.03
2019-04-03T15:51:43.020Z,98537.56
2019-04-03T15:54:12.449Z,98532.17
2019-04-03T15:56:44.347Z,98521.59
2019-04-03T15:59:12.762Z,98528.66
2019-04-03T16:01:42.245Z,98542.41
2019-04-03T16:04:11.513Z,98539.66
2019-04-03T16:06:40.758Z,98550.44
2019-04-03T16:09:11.250Z,98548.88
2019-04-03T16:11:40.473Z,98542.14
2019-04-03T16:14:09.868Z,98546.02
2019-04-03T16:16:39.419Z,98541.69
2019-04-03T16:19:11.429Z,98533.56
2019-04-03T16:21:39.707Z,98530.18
2019-04-03T16:24:12.402Z,98527.16
2019-04-03T16:26:41.004Z,98523.09
2019-04-03T16:29:10.878Z,98525.58
2019-04-03T16:31:40.117Z,98517.47
2019-04-03T16:34:12.286Z,98505.67
2019-04-03T16:36:40.825Z,98508.35
2019-04-03T16:39:10.423Z,98511.95
2019-04-03T16:41:40.991Z,98503.39
2019-04-03T16:44:10.683Z,98507.80
2019-04-03T16:46:41.585Z,98520.05
2019-04-03T16:49:11.135Z,98532.00
2019-04-03T16:51:41.413Z,98537.75
2019-04-03T16:54:12.459Z,98538.80
2019-04-03T16:56:41.699Z,98536.94
2019-04-03T16:59:10.906Z,98532.09
2019-04-03T17:01:40.165Z,98536.44
2019-04-03T17:04:10.451Z,98525.31
2019-04-03T17:06:39.745Z,98504.79
2019-04-03T17:09:09.668Z,98507.27
2019-04-03T17:11:39.300Z,98518.08
2019-04-03T17:14:09.006Z,98517.54
2019-04-03T17:16:38.561Z,98509.50
2019-04-03T17:19:08.273Z,98506.22
2019-04-03T17:21:39.357Z,98507.37
2019-04-03T17:24:08.581Z,98505.20
2019-04-03T17:26:47.835Z,98514.11
2019-04-03T17:29:09.309Z,98502.22
2019-04-03T17:31:38.747Z,98515.17
2019-04-03T17:34:08.410Z,98524.64
2019-04-03T17:36:38.013Z,98525.75
2019-04-03T17:39:08.959Z,98518.26
2019-04-03T17:41:38.621Z,98519.03
2019-04-03T17:44:07.928Z,98533.64
2019-04-03T17:46:39.946Z,98539.59
2019-04-03T17:49:08.437Z,98535.00
2019-04-03T17:51:37.678Z,98538.25
2019-04-03T17:54:07.876Z,98536.36
2019-04-03T17:56:38.724Z,98550.97
2019-04-03T17:59:08.031Z,98557.16
2019-04-03T18:01:37.726Z,98551.77
2019-04-03T18:04:07.336Z,98549.11
2019-04-03T18:06:36.831Z,98539.38
2019-04-03T18:09:08.736Z,98535.06
2019-04-03T18:11:38.244Z,98540.48
2019-04-03T18:14:07.825Z,98538.84
2019-04-03T18:16:37.158Z,98540.46
2019-04-03T18:19:06.487Z,98543.17
2019-04-03T18:21:35.765Z,98549.39
2019-04-03T18:24:05.252Z,98555.56
2019-04-03T18:26:34.458Z,98557.48
2019-04-03T18:29:06.364Z,98545.06
2019-04-03T18:31:34.771Z,98553.16
2019-04-03T18:34:04.221Z,98549.63
2019-04-03T18:36:33.718Z,98559.86
2019-04-03T18:39:04.618Z,98556.68
2019-04-03T18:41:33.822Z,98563.70
2019-04-03T18:44:03.116Z,98568.30
2019-04-03T18:46:34.423Z,98570.48
2019-04-03T18:49:03.312Z,98554.80
2019-04-03T18:51:32.531Z,98555.04
2019-04-03T18:54:01.791Z,98548.58
2019-04-03T18:56:32.184Z,98546.41
2019-04-03T18:59:01.524Z,98531.83
2019-04-03T19:01:32.264Z,98526.17
2019-04-03T19:04:01.692Z,98532.61
2019-04-03T19:06:31.193Z,98523.73
2019-04-03T19:09:09.709Z,98527.22
2019-04-03T19:11:34.301Z,98536.97
2019-04-03T19:14:03.171Z,98533.80
2019-04-03T19:16:43.543Z,98523.23
2019-04-03T19:19:08.153Z,98510.00
2019-04-03T19:21:35.767Z,98510.56
2019-04-03T19:24:05.384Z,98500.04
2019-04-03T19:26:34.870Z,98507.86
2019-04-03T19:29:05.164Z,98515.45
2019-04-03T19:31:35.847Z,98517.06
2019-04-03T19:34:05.139Z,98531.64
2019-04-03T19:36:34.368Z,98545.43
2019-04-03T19:39:06.607Z,98550.84
2019-04-03T19:41:36.324Z,98553.01
2019-04-03T19:44:05.604Z,98560.86
2019-04-03T19:46:34.816Z,98564.66
2019-04-03T19:49:04.084Z,98566.01
2019-04-03T19:51:33.305Z,98559.55
2019-04-03T19:54:02.513Z,98550.35
2019-04-03T19:56:31.749Z,98553.05
2019-04-03T19:59:01.061Z,98550.64
2019-04-03T20:01:30.601Z,98547.94
2019-04-03T20:04:00.106Z,98537.14
2019-04-03T20:06:29.999Z,98532.57
2019-04-03T20:09:00.942Z,98520.97
2019-04-03T20:11:30.177Z,98505.07
2019-04-03T20:13:59.428Z,98497.51
2019-04-03T20:16:28.930Z,98496.16
2019-04-03T20:18:58.159Z,98499.14
2019-04-03T20:21:27.399Z,98496.45
2019-04-03T20:23:56.911Z,98505.89
2019-04-03T20:26:26.542Z,98505.11
2019-04-03T20:28:57.393Z,98509.41
2019-04-03T20:31:26.789Z,98515.89
2019-04-03T20:33:56.306Z,98525.58
2019-04-03T20:36:25.582Z,98523.17
2019-04-03T20:38:55.998Z,98530.98
2019-04-03T20:41:25.820Z,98530.19
2019-04-03T20:43:55.162Z,98522.64
2019-04-03T20:46:24.514Z,98521.54
2019-04-03T20:48:54.033Z,98514.55
2019-04-03T20:51:23.349Z,98508.09
2019-04-03T20:53:52.639Z,98496.20
2019-04-03T20:56:21.862Z,98487.87
2019-04-03T20:58:56.174Z,98473.85
2019-04-03T21:01:22.376Z,98470.59
2019-04-03T21:03:51.938Z,98475.98
2019-04-03T21:06:21.508Z,98464.42
2019-04-03T21:08:50.988Z,98465.77
2019-04-03T21:11:20.524Z,98468.17
2019-04-03T21:13:49.737Z,98474.39
2019-04-03T21:16:19.331Z,98483.57
2019-04-03T21:18:51.160Z,98474.14
2019-04-03T21:21:19.899Z,98471.72
2019-04-03T21:23:49.381Z,98475.23
2019-04-03T21:26:18.934Z,98491.65
2019-04-03T21:28:48.192Z,98490.05
2019-04-03T21:31:17.429Z,98487.89
2019-04-03T21:33:46.963Z,98475.51
2019-04-03T21:36:16.212Z,98472.28
2019-04-03T21:38:45.495Z,98480.90
2019-04-03T21:41:14.753Z,98491.95
2019-04-03T21:43:44.030Z,98492.48
2019-04-03T21:46:13.622Z,98478.20
2019-04-03T21:48:44.758Z,98470.92
2019-04-03T21:51:14.362Z,98474.69
2019-04-03T21:53:43.915Z,98485.75
2019-04-03T21:56:13.151Z,98479.82
2019-04-03T21:58:42.730Z,98482.51
2019-04-03T22:01:24.339Z,98495.97
2019-04-03T22:03:53.791Z,98498.39
2019-04-03T22:06:23.170Z,98515.66
2019-04-03T22:08:52.449Z,98525.88
2019-04-03T22:11:22.043Z,98516.45
2019-04-03T22:13:51.318Z,98513.49
2019-04-03T22:16:20.654Z,98514.58
2019-04-03T22:18:49.940Z,98493.55
2019-04-03T22:21:19.808Z,98485.99
2019-04-03T22:23:49.417Z,98494.90
2019-04-03T22:26:18.919Z,98501.63
2019-04-03T22:28:48.496Z,98496.80
2019-04-03T22:31:17.730Z,98505.13
2019-04-03T22:33:47.004Z,98491.13
2019-04-03T22:36:16.254Z,98512.67
2019-04-03T22:38:45.775Z,98521.27
2019-04-03T22:41:15.046Z,98521.03
2019-04-03T22:43:46.194Z,98519.69
2019-04-03T22:46:15.712Z,98519.42
2019-04-03T22:48:45.034Z,98521.57
2019-04-03T22:51:14.854Z,98520.47
2019-04-03T22:53:44.397Z,98511.06
2019-04-03T22:56:16.553Z,98511.05
2019-04-03T22:58:44.751Z,98508.09
2019-04-03T23:01:13.986Z,98507.55
2019-04-03T23:03:43.228Z,98507.27
2019-04-03T23:06:12.751Z,98477.37
2019-04-03T23:08:42.007Z,98470.91
2019-04-03T23:11:11.243Z,98480.86
2019-04-03T23:13:40.912Z,98467.92
2019-04-03T23:16:11.639Z,98461.48
2019-04-03T23:18:41.366Z,98470.36
2019-04-03T23:21:10.568Z,98463.09
2019-04-03T23:23:39.812Z,98444.25
2019-04-03T23:26:09.057Z,98447.73
2019-04-03T23:28:38.361Z,98441.80
2019-04-03T23:31:07.647Z,98440.46
2019-04-03T23:33:37.287Z,98445.32
2019-04-03T23:36:06.929Z,98448.55
2019-04-03T23:38:36.178Z,98456.91
2019-04-03T23:41:06.139Z,98449.08
2019-04-03T23:43:35.865Z,98456.62
2019-04-03T23:46:05.382Z,98443.71
2019-04-03T23:48:34.633Z,98437.23
2019-04-03T23:51:03.871Z,98446.12
2019-04-03T23:53:33.096Z,98438.04
2019-04-03T23:56:02.345Z,98433.72
2019-04-03T23:58:31.576Z,98448.26
